Time;durP1;ratioP1;P1;durP2;ratioP2;P2;SDS_P1;SDS_P2;PMS_P1;PMS_P2;Temp;Humidity;BMP_temperature;BMP_pressure;BME280_temperature;BME280_humidity;BME280_pressure;Samples;Min_cycle;Max_cycle;Signal;HPM_P1;HPM_P2
2021/10/30 00:02:09;;;;;;;12.68;7.45;;;11.90;99.90;;;;;;4938239;29;20341;-80
2021/10/30 00:04:35;;;;;;;14.73;7.50;;;11.80;99.90;;;;;;4954394;28;20146;-79
2021/10/30 00:07:01;;;;;;;14.93;8.10;;;11.80;99.90;;;;;;4938817;29;20135;-80
2021/10/30 00:09:26;;;;;;;12.73;7.85;;;11.80;99.90;;;;;;4937949;29;20039;-80
2021/10/30 00:11:52;;;;;;;12.73;8.30;;;11.70;99.90;;;;;;4922666;29;20051;-80
2021/10/30 00:14:18;;;;;;;14.02;7.88;;;11.80;99.90;;;;;;4934307;29;20126;-80
2021/10/30 00:16:44;;;;;;;11.18;8.15;;;11.70;99.90;;;;;;4953513;29;20039;-79
2021/10/30 00:19:09;;;;;;;12.82;8.00;;;11.70;99.90;;;;;;4954205;29;20486;-80
2021/10/30 00:21:35;;;;;;;18.80;8.38;;;11.80;99.90;;;;;;4938215;29;20043;-80
2021/10/30 00:24:01;;;;;;;13.88;8.43;;;11.70;99.90;;;;;;4985553;28;20035;-80
2021/10/30 00:26:27;;;;;;;13.45;8.25;;;11.60;99.90;;;;;;4938190;29;20039;-80
2021/10/30 00:28:52;;;;;;;18.33;8.70;;;11.60;99.90;;;;;;4954184;28;20039;-80
2021/10/30 00:31:18;;;;;;;14.77;8.13;;;11.50;99.90;;;;;;4954192;29;20483;-80
2021/10/30 00:33:43;;;;;;;14.82;8.07;;;11.40;99.90;;;;;;4953563;29;20055;-80
2021/10/30 00:36:09;;;;;;;11.90;8.38;;;11.50;99.90;;;;;;4982909;28;20062;-79
2021/10/30 00:38:36;;;;;;;15.52;8.85;;;11.50;99.90;;;;;;4972606;28;20137;-81
2021/10/30 00:41:09;;;;;;;16.15;8.88;;;11.40;99.90;;;;;;4973069;28;20074;-80
2021/10/30 00:43:35;;;;;;;12.75;8.48;;;11.40;99.90;;;;;;4956820;28;20376;-80
2021/10/30 00:46:01;;;;;;;14.80;9.02;;;11.30;99.90;;;;;;4973250;28;20042;-80
2021/10/30 00:48:27;;;;;;;16.92;9.02;;;11.40;99.90;;;;;;4956597;28;20062;-81
2021/10/30 00:50:57;;;;;;;14.52;8.63;;;11.30;99.90;;;;;;4972924;28;20055;-80
2021/10/30 00:53:29;;;;;;;15.60;9.55;;;11.30;99.90;;;;;;4955595;28;20491;-80
2021/10/30 00:56:00;;;;;;;14.82;9.27;;;11.20;99.90;;;;;;4957283;28;20039;-81
2021/10/30 00:58:30;;;;;;;13.80;9.13;;;11.20;99.90;;;;;;4956619;28;20042;-80
2021/10/30 01:00:57;;;;;;;12.60;8.65;;;11.10;99.90;;;;;;4956911;28;20046;-81
2021/10/30 01:03:22;;;;;;;11.63;8.77;;;11.20;99.90;;;;;;4950191;28;20051;-79
2021/10/30 01:05:48;;;;;;;14.48;8.95;;;11.20;99.90;;;;;;4972760;28;20510;-80
2021/10/30 01:08:14;;;;;;;12.20;8.60;;;11.10;99.90;;;;;;4955670;28;20074;-80
2021/10/30 01:10:41;;;;;;;12.13;8.68;;;11.20;99.90;;;;;;4956357;28;20058;-80
2021/10/30 01:13:07;;;;;;;14.70;9.13;;;11.10;99.90;;;;;;4965897;28;20501;-81
2021/10/30 01:15:33;;;;;;;11.10;8.77;;;11.10;99.90;;;;;;4940378;28;20050;-80
2021/10/30 01:17:58;;;;;;;17.83;9.32;;;11.00;99.90;;;;;;4940336;28;20039;-80
2021/10/30 01:20:26;;;;;;;13.63;9.50;;;11.00;99.90;;;;;;4940558;28;20042;-81
2021/10/30 01:22:57;;;;;;;13.77;8.75;;;10.90;99.90;;;;;;4939474;28;20047;-80
2021/10/30 01:25:23;;;;;;;12.73;9.07;;;10.90;99.90;;;;;;4973008;28;20487;-81
2021/10/30 01:27:50;;;;;;;11.98;9.07;;;10.90;99.90;;;;;;4939800;28;20046;-80
2021/10/30 01:30:17;;;;;;;12.70;9.25;;;10.90;99.90;;;;;;4940279;28;20046;-80
2021/10/30 01:33:04;;;;;;;14.88;9.23;;;10.80;99.90;;;;;;4955867;28;20050;-80
2021/10/30 01:35:37;;;;;;;16.42;9.50;;;10.80;99.90;;;;;;4972253;28;20050;-80
2021/10/30 01:38:04;;;;;;;16.75;10.20;;;10.80;99.90;;;;;;4972570;28;20121;-80
2021/10/30 01:40:31;;;;;;;12.25;9.52;;;10.80;99.90;;;;;;4972218;28;20109;-80
2021/10/30 01:43:00;;;;;;;13.77;9.93;;;10.80;99.90;;;;;;4955631;28;20443;-80
2021/10/30 01:45:26;;;;;;;17.08;9.88;;;10.80;99.90;;;;;;4956011;28;20050;-80
2021/10/30 01:47:52;;;;;;;15.35;10.35;;;10.70;99.90;;;;;;4956152;28;20047;-81
2021/10/30 01:50:18;;;;;;;15.18;10.27;;;10.70;99.90;;;;;;4940507;28;20501;-80
2021/10/30 01:52:45;;;;;;;16.67;9.57;;;10.70;99.90;;;;;;4955229;28;20042;-80
2021/10/30 01:55:12;;;;;;;19.27;10.40;;;10.70;99.90;;;;;;4955999;28;20101;-80
2021/10/30 01:57:37;;;;;;;15.38;9.52;;;10.60;99.90;;;;;;4955602;28;20043;-80
2021/10/30 02:00:05;;;;;;;17.58;10.45;;;10.60;99.90;;;;;;4955984;28;20046;-80
2021/10/30 02:02:30;;;;;;;15.02;10.02;;;10.60;99.90;;;;;;4949272;28;20126;-80
2021/10/30 02:04:56;;;;;;;13.23;9.60;;;10.50;99.90;;;;;;4955417;28;20133;-80
2021/10/30 02:07:22;;;;;;;14.57;10.02;;;10.50;99.90;;;;;;4955779;28;20437;-80
2021/10/30 02:09:47;;;;;;;14.48;10.05;;;10.50;99.90;;;;;;4954712;28;20069;-80
2021/10/30 02:12:13;;;;;;;13.07;9.10;;;10.50;99.90;;;;;;4955936;28;20088;-81
2021/10/30 02:14:39;;;;;;;14.05;9.02;;;10.50;99.90;;;;;;4955300;28;20535;-80
2021/10/30 02:17:04;;;;;;;14.18;9.55;;;10.50;99.90;;;;;;4971557;28;20043;-80
2021/10/30 02:19:30;;;;;;;15.85;9.07;;;10.50;99.90;;;;;;4971451;28;20054;-80
2021/10/30 02:21:56;;;;;;;14.18;9.13;;;10.50;99.90;;;;;;4955507;28;20059;-80
2021/10/30 02:24:22;;;;;;;12.75;9.18;;;10.60;99.90;;;;;;4970647;28;20387;-80
2021/10/30 02:26:49;;;;;;;16.00;9.73;;;10.50;99.90;;;;;;4955477;28;20049;-80
2021/10/30 02:29:14;;;;;;;13.65;8.55;;;10.40;99.90;;;;;;4954819;28;20117;-80
2021/10/30 02:31:40;;;;;;;14.88;9.32;;;10.40;99.90;;;;;;4971484;28;20126;-80
2021/10/30 02:34:06;;;;;;;13.85;9.10;;;10.40;99.90;;;;;;4971447;28;20058;-80
2021/10/30 02:36:32;;;;;;;11.23;8.68;;;10.40;99.90;;;;;;4971474;28;20050;-81
2021/10/30 02:38:58;;;;;;;13.77;8.88;;;10.40;99.90;;;;;;4975933;28;20034;-80
2021/10/30 02:41:24;;;;;;;15.55;9.75;;;10.40;99.90;;;;;;4959576;28;20061;-80
2021/10/30 02:43:49;;;;;;;14.32;9.38;;;10.40;99.90;;;;;;4958966;28;20463;-81
2021/10/30 02:46:15;;;;;;;13.88;9.18;;;10.40;99.90;;;;;;4959270;28;20043;-80
2021/10/30 02:48:41;;;;;;;12.50;8.77;;;10.30;99.90;;;;;;4959180;28;20043;-80
2021/10/30 02:51:06;;;;;;;16.77;9.05;;;10.30;99.90;;;;;;4959259;28;20070;-80
2021/10/30 02:53:32;;;;;;;13.75;9.38;;;10.30;99.90;;;;;;4958259;28;20074;-80
2021/10/30 02:55:58;;;;;;;15.15;9.30;;;10.30;99.90;;;;;;4959112;28;20046;-79
2021/10/30 02:58:23;;;;;;;15.00;10.20;;;10.40;99.90;;;;;;4958838;28;20046;-80
2021/10/30 03:00:49;;;;;;;15.68;9.75;;;10.30;99.90;;;;;;4958994;28;20047;-80
2021/10/30 03:03:15;;;;;;;12.10;9.40;;;10.30;99.90;;;;;;4955362;29;20042;-80
2021/10/30 03:05:41;;;;;;;15.27;11.30;;;10.30;99.90;;;;;;4971686;28;20051;-81
2021/10/30 03:08:07;;;;;;;15.50;10.27;;;10.30;99.90;;;;;;4970985;28;20057;-80
2021/10/30 03:10:32;;;;;;;16.73;10.43;;;10.20;99.90;;;;;;4956084;29;20074;-80
2021/10/30 03:12:58;;;;;;;17.63;10.52;;;10.40;99.90;;;;;;4955597;29;20039;-80
2021/10/30 03:15:24;;;;;;;13.52;10.30;;;10.30;99.90;;;;;;4956950;29;20337;-80
2021/10/30 03:17:49;;;;;;;12.85;9.52;;;10.30;99.90;;;;;;4971733;28;20078;-80
2021/10/30 03:20:16;;;;;;;15.00;10.38;;;10.30;99.90;;;;;;4972064;28;20476;-80
2021/10/30 03:22:42;;;;;;;17.10;11.32;;;10.20;99.90;;;;;;4956360;29;20044;-80
2021/10/30 03:25:08;;;;;;;17.73;10.77;;;10.30;99.90;;;;;;4939191;29;20050;-80
2021/10/30 03:27:34;;;;;;;16.38;11.20;;;10.30;99.90;;;;;;4971523;28;20049;-80
2021/10/30 03:30:00;;;;;;;13.55;10.30;;;10.30;99.90;;;;;;4971123;28;20105;-80
2021/10/30 03:32:25;;;;;;;17.27;11.63;;;10.30;99.90;;;;;;4954698;29;20055;-80
2021/10/30 03:34:51;;;;;;;18.73;11.48;;;10.30;99.90;;;;;;4973431;28;20050;-81
2021/10/30 03:37:17;;;;;;;18.65;12.88;;;10.30;99.90;;;;;;4974182;28;20133;-81
2021/10/30 03:39:43;;;;;;;17.52;11.35;;;10.20;99.90;;;;;;4957384;28;20046;-81
2021/10/30 03:42:09;;;;;;;14.55;11.18;;;10.20;99.90;;;;;;4974415;28;20093;-80
2021/10/30 03:44:35;;;;;;;19.10;12.27;;;10.20;99.90;;;;;;4958109;28;20042;-80
2021/10/30 03:47:01;;;;;;;17.27;11.52;;;10.20;99.90;;;;;;4958310;28;20088;-80
2021/10/30 03:49:26;;;;;;;19.33;12.45;;;10.30;99.90;;;;;;4956766;28;20061;-80
2021/10/30 03:51:52;;;;;;;18.70;12.70;;;10.30;99.90;;;;;;4958660;28;20054;-80
2021/10/30 03:54:18;;;;;;;18.98;12.25;;;10.20;99.90;;;;;;4973206;28;20406;-80
2021/10/30 03:56:43;;;;;;;18.42;12.82;;;10.20;99.90;;;;;;4957988;28;20038;-80
2021/10/30 03:59:09;;;;;;;20.80;12.68;;;10.20;99.90;;;;;;4957980;28;20118;-80
2021/10/30 04:01:35;;;;;;;19.98;12.25;;;10.20;99.90;;;;;;4957855;28;20064;-80
2021/10/30 04:04:00;;;;;;;17.23;11.82;;;10.20;99.90;;;;;;4957795;28;20042;-80
2021/10/30 04:06:26;;;;;;;18.60;12.57;;;10.20;99.90;;;;;;4941897;28;20473;-80
2021/10/30 04:08:52;;;;;;;19.55;12.57;;;10.30;99.90;;;;;;4973261;28;20150;-81
2021/10/30 04:11:18;;;;;;;21.33;12.77;;;10.20;99.90;;;;;;4974105;28;20409;-81
2021/10/30 04:13:43;;;;;;;22.13;12.55;;;10.20;99.90;;;;;;4975624;28;20058;-81
2021/10/30 04:16:09;;;;;;;19.17;12.88;;;10.20;99.90;;;;;;4977022;28;20038;-80
2021/10/30 04:18:35;;;;;;;19.70;12.45;;;10.20;99.90;;;;;;4977080;28;20125;-81
2021/10/30 04:21:00;;;;;;;21.48;13.20;;;10.10;99.90;;;;;;4977015;28;20050;-81
2021/10/30 04:23:26;;;;;;;22.77;13.23;;;10.30;99.90;;;;;;4975969;28;20397;-81
2021/10/30 04:25:52;;;;;;;18.38;13.25;;;10.20;99.90;;;;;;4976913;28;20046;-81
2021/10/30 04:28:19;;;;;;;19.75;12.85;;;10.10;99.90;;;;;;4976751;28;20046;-81
2021/10/30 04:30:44;;;;;;;20.58;13.18;;;10.10;99.90;;;;;;4977316;28;20390;-81
2021/10/30 04:33:15;;;;;;;22.52;14.00;;;10.10;99.90;;;;;;4976811;28;20048;-81
2021/10/30 04:35:42;;;;;;;23.75;14.65;;;10.00;99.90;;;;;;4976713;28;20144;-81
2021/10/30 04:38:08;;;;;;;22.45;14.75;;;10.10;99.90;;;;;;4959690;28;20042;-81
2021/10/30 04:40:35;;;;;;;23.63;15.93;;;10.10;99.90;;;;;;4992827;28;20061;-80
2021/10/30 04:43:01;;;;;;;21.40;14.93;;;10.10;99.90;;;;;;4976289;28;20152;-80
2021/10/30 04:45:27;;;;;;;22.75;15.73;;;10.10;99.90;;;;;;4960483;28;20038;-81
2021/10/30 04:47:52;;;;;;;25.63;15.23;;;10.20;99.90;;;;;;4976378;28;20089;-80
2021/10/30 04:50:18;;;;;;;24.10;16.48;;;10.10;99.90;;;;;;4976622;28;20038;-81
2021/10/30 04:52:44;;;;;;;24.52;16.35;;;10.10;99.90;;;;;;4975651;28;20414;-80
2021/10/30 04:55:10;;;;;;;23.25;16.15;;;10.10;99.90;;;;;;4976245;28;20053;-80
2021/10/30 04:57:36;;;;;;;23.98;16.48;;;10.20;99.90;;;;;;4976802;28;20049;-81
2021/10/30 05:00:03;;;;;;;25.83;16.98;;;10.30;99.90;;;;;;4975868;28;20501;-81
2021/10/30 05:02:29;;;;;;;30.95;18.42;;;10.30;99.90;;;;;;4988700;28;20435;-80
2021/10/30 05:04:55;;;;;;;28.40;18.27;;;10.20;99.90;;;;;;4953429;28;20268;-80
2021/10/30 05:07:20;;;;;;;30.08;18.85;;;10.20;99.90;;;;;;4985803;28;20408;-80
2021/10/30 05:09:46;;;;;;;29.08;18.63;;;10.30;99.90;;;;;;4968716;28;20047;-80
2021/10/30 05:12:12;;;;;;;28.63;18.38;;;10.20;99.90;;;;;;4986034;28;20410;-80
2021/10/30 05:14:37;;;;;;;26.42;17.65;;;10.30;99.90;;;;;;4954690;28;20039;-79
2021/10/30 05:17:03;;;;;;;29.65;18.95;;;10.20;99.90;;;;;;4954707;29;20499;-80
2021/10/30 05:19:29;;;;;;;32.70;18.85;;;10.20;99.90;;;;;;4985438;28;20067;-80
2021/10/30 05:21:55;;;;;;;28.65;18.80;;;10.20;99.90;;;;;;4985625;28;20179;-80
2021/10/30 05:24:20;;;;;;;32.40;18.98;;;10.30;99.90;;;;;;4968094;28;20130;-81
2021/10/30 05:26:46;;;;;;;32.42;19.10;;;10.40;99.90;;;;;;4985524;28;20198;-79
2021/10/30 05:29:12;;;;;;;31.20;19.40;;;10.30;99.90;;;;;;4985129;28;20535;-79
2021/10/30 05:31:37;;;;;;;32.08;20.00;;;10.30;99.90;;;;;;4953197;29;20062;-79
2021/10/30 05:34:03;;;;;;;29.85;19.13;;;10.30;99.90;;;;;;4985289;28;20125;-80
2021/10/30 05:36:31;;;;;;;30.67;20.00;;;10.30;99.90;;;;;;4985172;28;20490;-80
2021/10/30 05:38:57;;;;;;;28.48;19.83;;;10.30;99.90;;;;;;4952298;29;20043;-79
2021/10/30 05:41:23;;;;;;;30.73;20.90;;;10.30;99.90;;;;;;4984942;28;20573;-79
2021/10/30 05:43:48;;;;;;;34.17;21.75;;;10.30;99.90;;;;;;4985426;28;20035;-79
2021/10/30 05:46:15;;;;;;;34.47;21.80;;;10.30;99.90;;;;;;4961146;28;20042;-78
2021/10/30 05:48:44;;;;;;;34.10;21.40;;;10.30;99.90;;;;;;4971890;28;20034;-79
2021/10/30 05:51:10;;;;;;;37.10;23.40;;;10.30;99.90;;;;;;4971996;28;20117;-78
2021/10/30 05:53:36;;;;;;;41.67;23.67;;;10.20;99.90;;;;;;4971490;28;20054;-79
2021/10/30 05:56:02;;;;;;;37.05;23.17;;;10.30;99.90;;;;;;4956102;28;20039;-79
2021/10/30 05:58:28;;;;;;;38.53;23.05;;;10.30;99.90;;;;;;4971689;28;20103;-79
2021/10/30 06:00:54;;;;;;;38.75;24.58;;;10.40;99.90;;;;;;4971811;28;20047;-80
2021/10/30 06:03:19;;;;;;;40.15;25.10;;;10.50;99.90;;;;;;4971459;28;20045;-80
2021/10/30 06:05:45;;;;;;;38.60;25.10;;;10.40;99.90;;;;;;4987887;28;20104;-80
2021/10/30 06:08:11;;;;;;;41.80;25.05;;;10.40;99.90;;;;;;4972174;28;20419;-80
2021/10/30 06:10:36;;;;;;;39.70;26.13;;;10.50;99.90;;;;;;4988074;28;20128;-79
2021/10/30 06:13:02;;;;;;;43.10;24.77;;;10.50;99.90;;;;;;4954816;28;20132;-80
2021/10/30 06:15:28;;;;;;;37.95;24.80;;;10.50;99.90;;;;;;4955971;28;20178;-80
2021/10/30 06:17:53;;;;;;;37.85;24.05;;;10.50;99.90;;;;;;4955422;28;20441;-79
2021/10/30 06:20:19;;;;;;;37.08;23.40;;;10.40;99.90;;;;;;4955548;28;20659;-80
2021/10/30 06:22:45;;;;;;;37.35;23.48;;;10.60;99.90;;;;;;4954928;28;20034;-79
2021/10/30 06:25:12;;;;;;;36.92;23.95;;;10.60;99.90;;;;;;4971971;28;20443;-79
2021/10/30 06:27:38;;;;;;;40.22;23.90;;;10.60;99.90;;;;;;4987951;28;20039;-80
2021/10/30 06:30:09;;;;;;;38.63;23.65;;;10.60;99.90;;;;;;4971561;28;20045;-80
2021/10/30 06:32:35;;;;;;;33.53;22.60;;;10.60;99.90;;;;;;4971641;28;20053;-80
2021/10/30 06:35:00;;;;;;;29.77;20.70;;;10.60;99.90;;;;;;4971305;28;20346;-80
2021/10/30 06:37:26;;;;;;;33.22;22.10;;;10.60;99.90;;;;;;4971722;28;20117;-80
2021/10/30 06:39:52;;;;;;;28.52;21.42;;;10.60;99.90;;;;;;4972158;28;20050;-80
2021/10/30 06:42:18;;;;;;;29.45;19.95;;;10.60;99.90;;;;;;4971158;28;20394;-80
2021/10/30 06:48:24;;;;;;;28.20;18.58;;;10.60;99.90;;;;;;4972065;28;20489;-80
2021/10/30 06:50:53;;;;;;;25.75;16.80;;;10.70;99.90;;;;;;4971511;28;20036;-80
2021/10/30 06:53:18;;;;;;;26.83;18.75;;;10.70;99.90;;;;;;4954634;28;20046;-80
2021/10/30 06:55:45;;;;;;;24.90;18.30;;;10.70;99.90;;;;;;4971204;28;20402;-80
2021/10/30 06:58:10;;;;;;;29.08;17.38;;;10.70;99.90;;;;;;4955739;28;20042;-80
2021/10/30 07:00:36;;;;;;;27.00;17.33;;;10.70;99.90;;;;;;4939015;28;20070;-80
2021/10/30 07:03:02;;;;;;;29.48;17.67;;;10.70;99.90;;;;;;4970999;28;20053;-79
2021/10/30 07:05:28;;;;;;;24.42;16.90;;;10.70;99.90;;;;;;4971215;28;20065;-80
2021/10/30 07:07:54;;;;;;;29.25;15.88;;;10.70;99.90;;;;;;4970536;28;20051;-80
2021/10/30 07:10:20;;;;;;;27.80;16.73;;;10.80;99.90;;;;;;4955894;28;20031;-80
2021/10/30 07:12:46;;;;;;;27.33;16.20;;;10.70;99.90;;;;;;4970937;28;20146;-80
2021/10/30 07:15:13;;;;;;;23.10;15.48;;;10.70;99.90;;;;;;4971559;28;20129;-81
2021/10/30 07:17:40;;;;;;;23.58;15.15;;;10.70;99.90;;;;;;4971818;28;20137;-80
2021/10/30 07:20:07;;;;;;;22.73;14.88;;;10.80;99.90;;;;;;4971342;28;20074;-81
2021/10/30 07:22:43;;;;;;;18.70;13.23;;;10.80;99.90;;;;;;4971248;28;20465;-80
2021/10/30 07:25:09;;;;;;;20.05;14.20;;;10.80;99.90;;;;;;4958818;28;20051;-80
2021/10/30 07:27:37;;;;;;;22.48;13.35;;;10.80;99.90;;;;;;4975125;28;20079;-81
2021/10/30 07:30:07;;;;;;;21.80;12.10;;;10.80;99.90;;;;;;4991683;28;20045;-81
2021/10/30 07:32:36;;;;;;;15.85;12.20;;;10.90;99.90;;;;;;4959699;28;20042;-81
2021/10/30 07:35:03;;;;;;;17.63;11.68;;;10.90;99.90;;;;;;4975520;28;20118;-81
2021/10/30 07:37:29;;;;;;;18.80;12.48;;;11.00;99.90;;;;;;4974537;28;20109;-80
2021/10/30 07:39:55;;;;;;;16.65;11.48;;;11.00;99.90;;;;;;4974109;28;20482;-81
2021/10/30 07:42:21;;;;;;;14.18;10.95;;;11.00;99.90;;;;;;4974710;28;20047;-80
2021/10/30 07:44:47;;;;;;;19.73;11.40;;;11.00;99.90;;;;;;4974515;28;20050;-80
2021/10/30 07:47:13;;;;;;;19.88;10.98;;;11.00;99.90;;;;;;4974850;28;20292;-80
2021/10/30 07:49:39;;;;;;;17.50;10.40;;;11.00;99.90;;;;;;4974339;28;20043;-80
2021/10/30 07:52:07;;;;;;;13.52;10.77;;;11.00;99.90;;;;;;4974444;28;20047;-81
2021/10/30 07:54:34;;;;;;;14.98;10.95;;;11.00;99.90;;;;;;4973853;28;20047;-80
2021/10/30 07:57:03;;;;;;;15.82;9.95;;;11.00;99.90;;;;;;4974159;28;20047;-80
2021/10/30 07:59:31;;;;;;;15.85;10.88;;;11.00;99.90;;;;;;4959147;28;20117;-80
2021/10/30 08:01:57;;;;;;;17.85;10.48;;;11.00;99.90;;;;;;4973977;28;20149;-79
2021/10/30 08:04:23;;;;;;;15.85;10.23;;;11.00;99.90;;;;;;4973994;28;20050;-79
2021/10/30 08:06:49;;;;;;;16.35;11.10;;;11.00;99.90;;;;;;4977517;28;20038;-80
2021/10/30 08:09:14;;;;;;;19.85;10.90;;;11.00;99.90;;;;;;4976362;28;20042;-79
2021/10/30 08:11:40;;;;;;;16.90;10.27;;;11.00;99.90;;;;;;4977538;28;20096;-80
2021/10/30 08:14:06;;;;;;;19.15;10.60;;;11.00;99.90;;;;;;4976950;28;20132;-80
2021/10/30 08:16:32;;;;;;;19.25;10.68;;;11.00;99.90;;;;;;4977374;28;20046;-80
2021/10/30 08:18:58;;;;;;;15.13;10.15;;;11.00;99.90;;;;;;4977209;28;20431;-80
2021/10/30 08:21:24;;;;;;;14.63;10.32;;;11.00;99.90;;;;;;4961129;28;20058;-80
2021/10/30 08:23:50;;;;;;;18.40;11.40;;;11.00;99.90;;;;;;4976165;28;20054;-80
2021/10/30 08:26:16;;;;;;;21.85;11.32;;;11.00;99.90;;;;;;4976972;28;20395;-80
2021/10/30 08:28:43;;;;;;;21.25;11.02;;;11.00;99.90;;;;;;4976491;28;20561;-80
2021/10/30 08:31:09;;;;;;;16.80;10.90;;;11.00;99.90;;;;;;4977068;28;20054;-80
2021/10/30 08:33:35;;;;;;;15.55;10.35;;;10.90;99.90;;;;;;4976801;28;20391;-80
2021/10/30 08:36:01;;;;;;;14.95;10.73;;;11.00;99.90;;;;;;4993617;28;20042;-80
2021/10/30 08:38:27;;;;;;;18.60;11.13;;;11.00;99.90;;;;;;4975995;28;20038;-80
2021/10/30 08:40:53;;;;;;;22.40;10.25;;;11.00;99.90;;;;;;4976925;28;20048;-80
2021/10/30 08:43:23;;;;;;;16.00;10.50;;;11.00;99.90;;;;;;4976097;28;20486;-80
2021/10/30 08:45:50;;;;;;;18.05;10.68;;;11.00;99.90;;;;;;4976624;28;20049;-80
2021/10/30 08:48:19;;;;;;;15.10;10.23;;;11.10;99.90;;;;;;4976157;28;20120;-80
2021/10/30 08:50:45;;;;;;;20.92;10.88;;;11.10;99.90;;;;;;4976769;28;20399;-79
2021/10/30 08:53:11;;;;;;;19.48;10.85;;;11.10;99.90;;;;;;4941648;28;20042;-80
2021/10/30 08:55:37;;;;;;;17.75;10.43;;;11.10;99.90;;;;;;4940861;28;20473;-80
2021/10/30 08:58:04;;;;;;;18.33;10.35;;;11.10;99.90;;;;;;4957318;28;20045;-79
2021/10/30 09:00:54;;;;;;;14.40;9.60;;;11.20;99.90;;;;;;4974243;28;20470;-79
2021/10/30 09:03:21;;;;;;;13.80;10.23;;;11.30;99.90;;;;;;4973149;28;20046;-80
2021/10/30 09:05:49;;;;;;;16.15;9.85;;;11.30;99.90;;;;;;4974255;28;20059;-80
2021/10/30 09:08:16;;;;;;;16.10;10.15;;;11.40;99.90;;;;;;4955460;28;20042;-80
2021/10/30 09:10:48;;;;;;;17.80;10.15;;;11.30;99.90;;;;;;4956988;28;20081;-80
2021/10/30 09:13:15;;;;;;;13.35;9.43;;;11.40;99.90;;;;;;4956762;28;20047;-80
2021/10/30 09:15:41;;;;;;;14.27;10.20;;;11.40;99.90;;;;;;4956722;28;20039;-80
2021/10/30 09:18:28;;;;;;;15.82;9.57;;;11.40;99.90;;;;;;4940647;28;20066;-80
2021/10/30 09:20:56;;;;;;;14.60;9.43;;;11.50;99.90;;;;;;4956817;28;20133;-80
2021/10/30 09:23:28;;;;;;;13.38;9.30;;;11.50;99.90;;;;;;4955982;28;20053;-80
2021/10/30 09:26:06;;;;;;;14.98;9.90;;;11.50;99.90;;;;;;4986556;28;20042;-80
2021/10/30 09:28:36;;;;;;;15.52;8.98;;;11.50;99.90;;;;;;4959309;28;20045;-80
2021/10/30 09:31:02;;;;;;;16.83;9.05;;;11.50;99.90;;;;;;4959711;28;20041;-80
2021/10/30 09:33:31;;;;;;;14.05;9.35;;;11.50;99.90;;;;;;4975443;28;20121;-80
2021/10/30 09:36:09;;;;;;;17.48;10.05;;;11.50;99.90;;;;;;4959917;28;20441;-80
2021/10/30 09:38:37;;;;;;;14.05;9.25;;;11.60;99.90;;;;;;4975020;28;20386;-80
2021/10/30 09:41:18;;;;;;;12.55;8.18;;;11.60;99.90;;;;;;4975848;28;20143;-80
2021/10/30 09:43:57;;;;;;;12.10;8.38;;;11.60;99.90;;;;;;4991431;28;20482;-80
2021/10/30 09:46:25;;;;;;;12.68;9.30;;;11.70;99.90;;;;;;4968180;28;20042;-80
2021/10/30 09:48:53;;;;;;;16.23;9.38;;;11.90;99.90;;;;;;4975418;28;20038;-80
2021/10/30 09:51:32;;;;;;;13.85;8.82;;;12.00;99.90;;;;;;4975590;28;20049;-80
2021/10/30 09:53:59;;;;;;;13.82;9.10;;;11.90;99.90;;;;;;4974460;28;20042;-80
2021/10/30 09:56:48;;;;;;;12.80;8.73;;;12.00;99.90;;;;;;4959200;28;20149;-80
2021/10/30 09:59:17;;;;;;;17.40;8.48;;;12.10;99.90;;;;;;4975290;28;20136;-79
2021/10/30 10:01:47;;;;;;;12.85;8.98;;;12.10;99.90;;;;;;4975331;28;20047;-80
2021/10/30 10:04:14;;;;;;;11.55;8.55;;;12.20;99.90;;;;;;4975089;28;20041;-80
2021/10/30 10:06:42;;;;;;;13.90;8.38;;;12.20;99.90;;;;;;4971759;28;20050;-80
2021/10/30 10:09:09;;;;;;;11.65;8.75;;;12.20;99.90;;;;;;4970911;28;20035;-80
2021/10/30 10:11:35;;;;;;;13.48;8.48;;;12.20;99.90;;;;;;4972316;28;20416;-80
2021/10/30 10:14:01;;;;;;;10.82;8.02;;;12.30;99.90;;;;;;4971595;28;20161;-80
2021/10/30 10:16:28;;;;;;;14.77;7.93;;;12.30;99.90;;;;;;4971917;28;20038;-80
2021/10/30 10:18:55;;;;;;;14.18;8.50;;;12.30;99.90;;;;;;4971736;28;20510;-80
2021/10/30 10:21:27;;;;;;;15.30;8.10;;;12.30;99.90;;;;;;4972110;28;20376;-80
2021/10/30 10:23:56;;;;;;;13.50;8.23;;;12.30;99.90;;;;;;4970665;28;20046;-80
2021/10/30 10:26:45;;;;;;;11.00;7.50;;;12.40;99.90;;;;;;4971725;28;20117;-80
2021/10/30 10:29:27;;;;;;;10.45;7.60;;;12.40;99.90;;;;;;4971482;28;20035;-80
2021/10/30 10:31:53;;;;;;;11.10;7.82;;;12.30;99.90;;;;;;4971785;28;20145;-80
2021/10/30 10:34:38;;;;;;;9.52;6.93;;;12.50;99.90;;;;;;4971748;28;20133;-80
2021/10/30 10:37:20;;;;;;;11.77;7.35;;;12.50;99.90;;;;;;4971959;28;20047;-80
2021/10/30 10:39:54;;;;;;;10.45;6.65;;;12.60;99.90;;;;;;4970695;28;20049;-80
2021/10/30 10:42:35;;;;;;;12.23;7.25;;;12.60;99.90;;;;;;4955586;28;20367;-80
2021/10/30 10:45:47;;;;;;;11.70;6.75;;;12.70;99.90;;;;;;4971476;28;20130;-80
2021/10/30 10:48:13;;;;;;;10.10;6.60;;;12.70;99.90;;;;;;4968136;28;20102;-80
2021/10/30 10:50:43;;;;;;;11.35;6.97;;;12.80;99.90;;;;;;4968260;28;20043;-80
2021/10/30 10:53:15;;;;;;;9.75;6.75;;;12.70;99.90;;;;;;4968619;28;20043;-80
2021/10/30 10:55:47;;;;;;;9.73;6.60;;;12.80;99.90;;;;;;4973091;28;20047;-80
2021/10/30 10:58:14;;;;;;;9.15;6.05;;;12.80;99.90;;;;;;4972293;28;20039;-79
2021/10/30 11:01:01;;;;;;;10.18;6.60;;;12.80;99.90;;;;;;4975945;28;20047;-80
2021/10/30 11:03:30;;;;;;;12.32;6.28;;;12.90;99.90;;;;;;4975425;28;20098;-80
2021/10/30 11:05:57;;;;;;;10.57;6.00;;;12.90;99.90;;;;;;4974860;28;20059;-80
2021/10/30 11:08:33;;;;;;;10.73;5.97;;;12.90;99.90;;;;;;4974499;28;20065;-80
2021/10/30 11:11:19;;;;;;;8.15;6.00;;;12.90;99.90;;;;;;4975285;28;20089;-80
2021/10/30 11:13:58;;;;;;;9.52;6.30;;;12.90;99.90;;;;;;4974902;28;20039;-80
2021/10/30 11:16:31;;;;;;;8.50;5.70;;;13.00;99.90;;;;;;4975241;28;20039;-80
2021/10/30 11:19:04;;;;;;;9.73;6.13;;;12.90;99.90;;;;;;4975053;28;20046;-80
2021/10/30 11:21:38;;;;;;;8.65;5.80;;;12.90;99.90;;;;;;4974903;28;20085;-80
2021/10/30 11:24:18;;;;;;;8.93;5.87;;;13.00;99.90;;;;;;4973883;28;20035;-80
2021/10/30 11:26:54;;;;;;;9.50;5.80;;;13.00;99.90;;;;;;4974975;28;20749;-80
2021/10/30 11:29:20;;;;;;;8.77;5.47;;;13.00;99.90;;;;;;4974603;28;20050;-80
2021/10/30 11:31:52;;;;;;;14.18;5.70;;;13.00;99.90;;;;;;4958695;28;20058;-80
2021/10/30 11:34:19;;;;;;;8.73;5.75;;;13.00;99.90;;;;;;4990915;28;20070;-80
2021/10/30 11:36:45;;;;;;;8.82;5.38;;;12.90;99.90;;;;;;4974780;28;20098;-80
2021/10/30 11:39:14;;;;;;;8.75;6.15;;;12.90;99.90;;;;;;4989842;28;20105;-80
2021/10/30 11:41:42;;;;;;;9.38;5.28;;;12.90;99.90;;;;;;4977518;28;20047;-80
2021/10/30 11:44:16;;;;;;;8.18;5.25;;;12.90;99.90;;;;;;4993631;28;20045;-80
2021/10/30 11:46:54;;;;;;;7.05;5.40;;;13.00;99.90;;;;;;4965817;28;20058;-80
2021/10/30 11:49:32;;;;;;;9.70;5.60;;;13.00;99.90;;;;;;4974786;28;20497;-80
2021/10/30 11:52:12;;;;;;;9.30;5.50;;;13.00;99.90;;;;;;4974407;28;20493;-80
2021/10/30 11:54:38;;;;;;;7.57;5.90;;;13.00;99.90;;;;;;4957270;28;20581;-80
2021/10/30 11:57:11;;;;;;;9.35;5.80;;;13.00;99.90;;;;;;4973965;28;20078;-80
2021/10/30 11:59:44;;;;;;;7.53;5.50;;;13.10;99.90;;;;;;4975057;28;20043;-80
2021/10/30 12:02:14;;;;;;;10.77;5.90;;;13.10;99.90;;;;;;4990130;28;20475;-80
2021/10/30 12:04:40;;;;;;;8.57;5.43;;;13.10;99.90;;;;;;4960028;28;20097;-80
2021/10/30 12:07:10;;;;;;;9.80;6.03;;;13.10;99.90;;;;;;4977193;28;20054;-80
2021/10/30 12:09:38;;;;;;;8.73;5.55;;;13.10;99.90;;;;;;4974983;28;20050;-80
2021/10/30 12:12:23;;;;;;;9.82;5.78;;;13.00;99.90;;;;;;4976901;28;20038;-80
2021/10/30 12:14:56;;;;;;;11.80;5.70;;;13.00;99.90;;;;;;4973784;28;20103;-80
2021/10/30 12:17:28;;;;;;;12.40;5.72;;;13.00;99.90;;;;;;4957791;28;20398;-80
2021/10/30 12:20:04;;;;;;;10.77;6.03;;;13.00;99.90;;;;;;4973712;28;20360;-80
2021/10/30 12:22:39;;;;;;;8.45;5.18;;;13.00;99.90;;;;;;4972927;28;20059;-80
2021/10/30 12:25:07;;;;;;;7.18;5.40;;;13.00;99.90;;;;;;4940902;28;20050;-80
2021/10/30 12:27:49;;;;;;;8.30;6.00;;;13.00;99.90;;;;;;4989208;28;20039;-80
2021/10/30 12:30:18;;;;;;;7.05;5.22;;;13.10;99.90;;;;;;4941404;28;20074;-80
2021/10/30 12:32:46;;;;;;;8.95;5.70;;;13.10;99.90;;;;;;4941702;28;20078;-79
2021/10/30 12:35:19;;;;;;;10.80;5.57;;;13.10;99.90;;;;;;4957885;28;20118;-80
2021/10/30 12:37:47;;;;;;;6.70;5.10;;;13.30;99.90;;;;;;4957608;28;20086;-80
2021/10/30 12:40:14;;;;;;;6.60;4.90;;;13.20;99.90;;;;;;4957648;28;20053;-80
2021/10/30 12:42:40;;;;;;;8.20;5.07;;;13.20;99.90;;;;;;4973268;28;20053;-80